sensor_id;sensor_type;location;lat;lon;timestamp;P1;durP1;ratioP1;P2;durP2;ratioP2
64667;SDS011;51077;42.716;23.344;2022-10-16T00:00:38;9.82;;;5.78;;
64667;SDS011;51077;42.716;23.344;2022-10-16T00:03:05;10.20;;;5.53;;
64667;SDS011;51077;42.716;23.344;2022-10-16T00:05:32;9.35;;;4.97;;
64667;SDS011;51077;42.716;23.344;2022-10-16T00:08:02;9.40;;;5.57;;
64667;SDS011;51077;42.716;23.344;2022-10-16T00:10:28;10.03;;;5.43;;
64667;SDS011;51077;42.716;23.344;2022-10-16T00:12:54;9.70;;;5.17;;
64667;SDS011;51077;42.716;23.344;2022-10-16T00:15:19;8.80;;;5.47;;
64667;SDS011;51077;42.716;23.344;2022-10-16T00:17:44;8.67;;;5.10;;
64667;SDS011;51077;42.716;23.344;2022-10-16T00:20:10;9.83;;;5.37;;
64667;SDS011;51077;42.716;23.344;2022-10-16T00:22:35;8.50;;;5.70;;
64667;SDS011;51077;42.716;23.344;2022-10-16T00:25:01;9.83;;;5.70;;
64667;SDS011;51077;42.716;23.344;2022-10-16T00:27:26;9.37;;;5.57;;
64667;SDS011;51077;42.716;23.344;2022-10-16T00:29:52;8.60;;;5.23;;
64667;SDS011;51077;42.716;23.344;2022-10-16T00:32:18;9.83;;;5.67;;
64667;SDS011;51077;42.716;23.344;2022-10-16T00:34:46;8.65;;;5.57;;
64667;SDS011;51077;42.716;23.344;2022-10-16T00:37:12;9.07;;;5.57;;
64667;SDS011;51077;42.716;23.344;2022-10-16T00:39:38;9.48;;;5.30;;
64667;SDS011;51077;42.716;23.344;2022-10-16T00:42:04;8.20;;;5.30;;
64667;SDS011;51077;42.716;23.344;2022-10-16T00:47:09;7.57;;;5.07;;
64667;SDS011;51077;42.716;23.344;2022-10-16T00:49:38;10.43;;;5.40;;
64667;SDS011;51077;42.716;23.344;2022-10-16T00:52:03;8.60;;;4.93;;
64667;SDS011;51077;42.716;23.344;2022-10-16T00:54:30;8.70;;;5.20;;
64667;SDS011;51077;42.716;23.344;2022-10-16T00:56:58;10.00;;;5.28;;
64667;SDS011;51077;42.716;23.344;2022-10-16T00:59:27;10.95;;;7.00;;
64667;SDS011;51077;42.716;23.344;2022-10-16T01:01:56;10.60;;;7.07;;
64667;SDS011;51077;42.716;23.344;2022-10-16T01:04:22;9.55;;;6.03;;
64667;SDS011;51077;42.716;23.344;2022-10-16T01:12:21;12.40;;;6.55;;
64667;SDS011;51077;42.716;23.344;2022-10-16T01:15:10;9.52;;;6.18;;
64667;SDS011;51077;42.716;23.344;2022-10-16T01:18:29;9.75;;;5.80;;
64667;SDS011;51077;42.716;23.344;2022-10-16T01:20:29;8.80;;;5.97;;
64667;SDS011;51077;42.716;23.344;2022-10-16T01:25:49;10.65;;;6.05;;
64667;SDS011;51077;42.716;23.344;2022-10-16T01:28:41;8.73;;;5.82;;
64667;SDS011;51077;42.716;23.344;2022-10-16T01:31:14;6.93;;;5.15;;
64667;SDS011;51077;42.716;23.344;2022-10-16T01:33:44;7.85;;;5.88;;
64667;SDS011;51077;42.716;23.344;2022-10-16T01:36:15;8.38;;;5.68;;
64667;SDS011;51077;42.716;23.344;2022-10-16T01:38:46;8.77;;;5.85;;
64667;SDS011;51077;42.716;23.344;2022-10-16T01:41:15;10.15;;;5.95;;
64667;SDS011;51077;42.716;23.344;2022-10-16T01:43:47;9.27;;;6.40;;
64667;SDS011;51077;42.716;23.344;2022-10-16T01:46:18;9.15;;;5.57;;
64667;SDS011;51077;42.716;23.344;2022-10-16T01:48:46;8.85;;;5.43;;
64667;SDS011;51077;42.716;23.344;2022-10-16T01:51:13;8.95;;;5.88;;
64667;SDS011;51077;42.716;23.344;2022-10-16T01:53:41;8.82;;;5.85;;
64667;SDS011;51077;42.716;23.344;2022-10-16T01:56:10;12.32;;;6.40;;
64667;SDS011;51077;42.716;23.344;2022-10-16T01:58:40;10.73;;;6.30;;
64667;SDS011;51077;42.716;23.344;2022-10-16T02:01:11;10.25;;;6.47;;
64667;SDS011;51077;42.716;23.344;2022-10-16T02:03:41;9.05;;;6.32;;
64667;SDS011;51077;42.716;23.344;2022-10-16T02:06:09;10.70;;;7.07;;
64667;SDS011;51077;42.716;23.344;2022-10-16T02:08:35;10.07;;;6.10;;
64667;SDS011;51077;42.716;23.344;2022-10-16T02:11:03;12.65;;;6.47;;
64667;SDS011;51077;42.716;23.344;2022-10-16T02:13:30;11.23;;;6.40;;
64667;SDS011;51077;42.716;23.344;2022-10-16T02:16:00;11.77;;;5.82;;
64667;SDS011;51077;42.716;23.344;2022-10-16T02:18:26;7.43;;;5.30;;
64667;SDS011;51077;42.716;23.344;2022-10-16T02:26:51;9.10;;;5.90;;
64667;SDS011;51077;42.716;23.344;2022-10-16T02:29:24;9.05;;;6.07;;
64667;SDS011;51077;42.716;23.344;2022-10-16T02:31:53;10.73;;;5.72;;
64667;SDS011;51077;42.716;23.344;2022-10-16T02:34:23;8.00;;;5.07;;
64667;SDS011;51077;42.716;23.344;2022-10-16T02:36:51;8.98;;;4.97;;
64667;SDS011;51077;42.716;23.344;2022-10-16T02:39:18;7.97;;;5.00;;
64667;SDS011;51077;42.716;23.344;2022-10-16T02:41:45;10.00;;;4.90;;
64667;SDS011;51077;42.716;23.344;2022-10-16T02:44:10;7.80;;;4.93;;
64667;SDS011;51077;42.716;23.344;2022-10-16T02:46:36;8.60;;;5.47;;
64667;SDS011;51077;42.716;23.344;2022-10-16T02:49:01;7.03;;;4.90;;
64667;SDS011;51077;42.716;23.344;2022-10-16T02:51:27;10.90;;;5.37;;
64667;SDS011;51077;42.716;23.344;2022-10-16T02:53:52;8.47;;;4.97;;
64667;SDS011;51077;42.716;23.344;2022-10-16T02:56:18;9.27;;;5.43;;
64667;SDS011;51077;42.716;23.344;2022-10-16T02:58:43;9.37;;;5.40;;
64667;SDS011;51077;42.716;23.344;2022-10-16T03:01:09;9.17;;;5.50;;
64667;SDS011;51077;42.716;23.344;2022-10-16T03:03:34;9.70;;;5.33;;
64667;SDS011;51077;42.716;23.344;2022-10-16T03:05:59;7.97;;;5.50;;
64667;SDS011;51077;42.716;23.344;2022-10-16T03:08:25;7.90;;;5.20;;
64667;SDS011;51077;42.716;23.344;2022-10-16T03:10:50;8.63;;;5.30;;
64667;SDS011;51077;42.716;23.344;2022-10-16T03:13:17;7.63;;;4.95;;
64667;SDS011;51077;42.716;23.344;2022-10-16T03:15:43;9.27;;;4.67;;
64667;SDS011;51077;42.716;23.344;2022-10-16T03:18:08;12.48;;;4.95;;
64667;SDS011;51077;42.716;23.344;2022-10-16T03:20:34;8.70;;;4.73;;
64667;SDS011;51077;42.716;23.344;2022-10-16T03:22:59;9.40;;;4.27;;
64667;SDS011;51077;42.716;23.344;2022-10-16T03:25:25;6.00;;;4.10;;
64667;SDS011;51077;42.716;23.344;2022-10-16T03:27:50;7.70;;;4.40;;
64667;SDS011;51077;42.716;23.344;2022-10-16T03:30:15;9.60;;;4.43;;
64667;SDS011;51077;42.716;23.344;2022-10-16T03:32:41;9.13;;;4.70;;
64667;SDS011;51077;42.716;23.344;2022-10-16T03:35:07;7.80;;;5.30;;
64667;SDS011;51077;42.716;23.344;2022-10-16T03:37:32;8.80;;;5.65;;
64667;SDS011;51077;42.716;23.344;2022-10-16T03:39:58;8.17;;;5.03;;
64667;SDS011;51077;42.716;23.344;2022-10-16T03:42:24;9.25;;;5.50;;
64667;SDS011;51077;42.716;23.344;2022-10-16T03:44:49;7.43;;;4.53;;
64667;SDS011;51077;42.716;23.344;2022-10-16T03:47:15;9.77;;;5.50;;
64667;SDS011;51077;42.716;23.344;2022-10-16T03:49:40;7.63;;;5.07;;
64667;SDS011;51077;42.716;23.344;2022-10-16T03:52:05;9.53;;;5.43;;
64667;SDS011;51077;42.716;23.344;2022-10-16T03:54:31;8.63;;;4.57;;
64667;SDS011;51077;42.716;23.344;2022-10-16T03:56:56;56.93;;;6.00;;
64667;SDS011;51077;42.716;23.344;2022-10-16T03:59:22;41.60;;;5.90;;
64667;SDS011;51077;42.716;23.344;2022-10-16T04:01:47;11.63;;;5.27;;
64667;SDS011;51077;42.716;23.344;2022-10-16T04:04:13;10.17;;;5.47;;
64667;SDS011;51077;42.716;23.344;2022-10-16T04:06:38;16.10;;;5.47;;
64667;SDS011;51077;42.716;23.344;2022-10-16T04:09:03;10.07;;;4.70;;
64667;SDS011;51077;42.716;23.344;2022-10-16T04:11:29;15.97;;;6.03;;
64667;SDS011;51077;42.716;23.344;2022-10-16T04:13:54;10.90;;;6.10;;
64667;SDS011;51077;42.716;23.344;2022-10-16T04:16:20;12.68;;;5.20;;
64667;SDS011;51077;42.716;23.344;2022-10-16T04:18:46;12.07;;;4.83;;
64667;SDS011;51077;42.716;23.344;2022-10-16T04:21:11;9.70;;;4.77;;
64667;SDS011;51077;42.716;23.344;2022-10-16T04:23:36;8.00;;;4.73;;
64667;SDS011;51077;42.716;23.344;2022-10-16T04:26:02;7.13;;;5.00;;
64667;SDS011;51077;42.716;23.344;2022-10-16T04:28:28;8.70;;;4.30;;
64667;SDS011;51077;42.716;23.344;2022-10-16T04:30:53;8.97;;;5.07;;
64667;SDS011;51077;42.716;23.344;2022-10-16T04:33:19;11.63;;;5.53;;
64667;SDS011;51077;42.716;23.344;2022-10-16T04:35:44;8.80;;;5.10;;
64667;SDS011;51077;42.716;23.344;2022-10-16T04:38:10;9.87;;;4.83;;
64667;SDS011;51077;42.716;23.344;2022-10-16T04:40:35;9.50;;;5.13;;
64667;SDS011;51077;42.716;23.344;2022-10-16T04:43:03;8.27;;;5.55;;
64667;SDS011;51077;42.716;23.344;2022-10-16T04:45:29;9.52;;;5.38;;
64667;SDS011;51077;42.716;23.344;2022-10-16T04:47:58;8.93;;;4.80;;
64667;SDS011;51077;42.716;23.344;2022-10-16T04:50:24;11.27;;;5.60;;
64667;SDS011;51077;42.716;23.344;2022-10-16T04:52:50;10.87;;;5.23;;
64667;SDS011;51077;42.716;23.344;2022-10-16T04:55:15;11.57;;;5.63;;
64667;SDS011;51077;42.716;23.344;2022-10-16T04:57:41;16.10;;;6.88;;
64667;SDS011;51077;42.716;23.344;2022-10-16T05:00:06;11.00;;;5.87;;
64667;SDS011;51077;42.716;23.344;2022-10-16T05:02:33;9.35;;;5.28;;
64667;SDS011;51077;42.716;23.344;2022-10-16T05:04:58;11.47;;;6.17;;
64667;SDS011;51077;42.716;23.344;2022-10-16T05:07:24;11.97;;;6.40;;
64667;SDS011;51077;42.716;23.344;2022-10-16T05:09:49;12.83;;;5.93;;
64667;SDS011;51077;42.716;23.344;2022-10-16T05:12:15;13.97;;;5.60;;
64667;SDS011;51077;42.716;23.344;2022-10-16T05:14:40;13.23;;;6.47;;
64667;SDS011;51077;42.716;23.344;2022-10-16T05:17:06;10.37;;;6.20;;
64667;SDS011;51077;42.716;23.344;2022-10-16T05:19:31;12.67;;;5.77;;
64667;SDS011;51077;42.716;23.344;2022-10-16T05:21:57;12.37;;;6.37;;
64667;SDS011;51077;42.716;23.344;2022-10-16T05:24:22;15.77;;;6.73;;
64667;SDS011;51077;42.716;23.344;2022-10-16T05:26:48;11.47;;;6.30;;
64667;SDS011;51077;42.716;23.344;2022-10-16T05:29:14;12.93;;;6.18;;
64667;SDS011;51077;42.716;23.344;2022-10-16T05:31:40;8.93;;;6.20;;
64667;SDS011;51077;42.716;23.344;2022-10-16T05:34:05;9.70;;;5.87;;
64667;SDS011;51077;42.716;23.344;2022-10-16T05:36:31;10.40;;;6.00;;
64667;SDS011;51077;42.716;23.344;2022-10-16T05:38:56;11.13;;;5.87;;
64667;SDS011;51077;42.716;23.344;2022-10-16T05:41:21;9.87;;;5.73;;
64667;SDS011;51077;42.716;23.344;2022-10-16T05:43:50;10.60;;;5.93;;
64667;SDS011;51077;42.716;23.344;2022-10-16T05:46:16;11.87;;;6.07;;
64667;SDS011;51077;42.716;23.344;2022-10-16T05:48:41;9.95;;;5.28;;
64667;SDS011;51077;42.716;23.344;2022-10-16T05:51:08;11.57;;;5.93;;
64667;SDS011;51077;42.716;23.344;2022-10-16T05:53:36;14.82;;;5.75;;
64667;SDS011;51077;42.716;23.344;2022-10-16T05:56:03;11.25;;;6.10;;
64667;SDS011;51077;42.716;23.344;2022-10-16T05:58:31;10.60;;;5.28;;
64667;SDS011;51077;42.716;23.344;2022-10-16T06:00:59;9.52;;;5.70;;
64667;SDS011;51077;42.716;23.344;2022-10-16T06:03:27;10.98;;;5.53;;
64667;SDS011;51077;42.716;23.344;2022-10-16T06:05:53;7.35;;;4.88;;
64667;SDS011;51077;42.716;23.344;2022-10-16T06:08:19;9.00;;;5.13;;
64667;SDS011;51077;42.716;23.344;2022-10-16T06:10:46;13.77;;;5.20;;
64667;SDS011;51077;42.716;23.344;2022-10-16T06:13:12;7.70;;;4.70;;
64667;SDS011;51077;42.716;23.344;2022-10-16T06:15:40;7.53;;;5.10;;
64667;SDS011;51077;42.716;23.344;2022-10-16T06:18:07;8.48;;;5.13;;
64667;SDS011;51077;42.716;23.344;2022-10-16T06:20:33;8.13;;;4.93;;
64667;SDS011;51077;42.716;23.344;2022-10-16T06:22:59;7.97;;;4.87;;
64667;SDS011;51077;42.716;23.344;2022-10-16T06:25:24;8.77;;;5.17;;
64667;SDS011;51077;42.716;23.344;2022-10-16T06:27:50;9.10;;;5.63;;
64667;SDS011;51077;42.716;23.344;2022-10-16T06:30:15;9.90;;;6.20;;
64667;SDS011;51077;42.716;23.344;2022-10-16T06:32:40;9.40;;;5.63;;
64667;SDS011;51077;42.716;23.344;2022-10-16T06:35:06;10.67;;;5.70;;
64667;SDS011;51077;42.716;23.344;2022-10-16T06:37:32;11.87;;;6.17;;
64667;SDS011;51077;42.716;23.344;2022-10-16T06:39:57;13.10;;;6.60;;
64667;SDS011;51077;42.716;23.344;2022-10-16T06:42:23;11.43;;;6.50;;
64667;SDS011;51077;42.716;23.344;2022-10-16T06:44:48;11.13;;;7.40;;
64667;SDS011;51077;42.716;23.344;2022-10-16T06:47:13;11.00;;;6.90;;
64667;SDS011;51077;42.716;23.344;2022-10-16T06:49:39;10.83;;;7.10;;
64667;SDS011;51077;42.716;23.344;2022-10-16T06:52:04;14.53;;;7.60;;
64667;SDS011;51077;42.716;23.344;2022-10-16T06:54:30;14.07;;;7.77;;
64667;SDS011;51077;42.716;23.344;2022-10-16T06:56:55;13.03;;;8.23;;
64667;SDS011;51077;42.716;23.344;2022-10-16T06:59:21;14.83;;;7.57;;
64667;SDS011;51077;42.716;23.344;2022-10-16T07:01:47;12.52;;;8.10;;
64667;SDS011;51077;42.716;23.344;2022-10-16T07:04:13;15.40;;;7.63;;
64667;SDS011;51077;42.716;23.344;2022-10-16T07:06:38;12.37;;;7.67;;
64667;SDS011;51077;42.716;23.344;2022-10-16T07:09:08;11.57;;;7.55;;
64667;SDS011;51077;42.716;23.344;2022-10-16T07:11:35;11.02;;;7.63;;
64667;SDS011;51077;42.716;23.344;2022-10-16T07:14:01;10.65;;;6.95;;
64667;SDS011;51077;42.716;23.344;2022-10-16T07:16:28;12.60;;;6.45;;
64667;SDS011;51077;42.716;23.344;2022-10-16T07:18:56;9.75;;;6.53;;
64667;SDS011;51077;42.716;23.344;2022-10-16T07:21:24;11.40;;;6.40;;
64667;SDS011;51077;42.716;23.344;2022-10-16T07:23:54;8.73;;;6.03;;
64667;SDS011;51077;42.716;23.344;2022-10-16T07:26:21;9.63;;;5.57;;
64667;SDS011;51077;42.716;23.344;2022-10-16T07:28:48;13.30;;;5.75;;
64667;SDS011;51077;42.716;23.344;2022-10-16T07:31:14;9.90;;;4.75;;
64667;SDS011;51077;42.716;23.344;2022-10-16T07:33:41;8.20;;;4.72;;
64667;SDS011;51077;42.716;23.344;2022-10-16T07:36:09;10.40;;;4.80;;
64667;SDS011;51077;42.716;23.344;2022-10-16T07:38:35;8.40;;;5.10;;
64667;SDS011;51077;42.716;23.344;2022-10-16T07:41:10;7.53;;;4.20;;
64667;SDS011;51077;42.716;23.344;2022-10-16T07:43:37;6.63;;;3.97;;
64667;SDS011;51077;42.716;23.344;2022-10-16T07:46:03;9.10;;;4.10;;
64667;SDS011;51077;42.716;23.344;2022-10-16T07:48:30;7.33;;;4.30;;
64667;SDS011;51077;42.716;23.344;2022-10-16T07:50:57;8.77;;;4.53;;
64667;SDS011;51077;42.716;23.344;2022-10-16T07:53:24;8.90;;;4.63;;
64667;SDS011;51077;42.716;23.344;2022-10-16T07:55:49;7.93;;;5.03;;
64667;SDS011;51077;42.716;23.344;2022-10-16T07:58:15;8.90;;;4.60;;
64667;SDS011;51077;42.716;23.344;2022-10-16T08:00:40;6.57;;;3.87;;
64667;SDS011;51077;42.716;23.344;2022-10-16T08:03:05;7.40;;;5.03;;
64667;SDS011;51077;42.716;23.344;2022-10-16T08:05:31;9.10;;;3.90;;
64667;SDS011;51077;42.716;23.344;2022-10-16T08:07:57;10.77;;;4.85;;
64667;SDS011;51077;42.716;23.344;2022-10-16T08:10:24;7.53;;;4.60;;
64667;SDS011;51077;42.716;23.344;2022-10-16T08:12:51;6.72;;;4.07;;
64667;SDS011;51077;42.716;23.344;2022-10-16T08:15:17;8.05;;;4.32;;
64667;SDS011;51077;42.716;23.344;2022-10-16T08:17:43;6.68;;;3.70;;
64667;SDS011;51077;42.716;23.344;2022-10-16T08:20:09;7.30;;;3.70;;
64667;SDS011;51077;42.716;23.344;2022-10-16T08:22:35;7.53;;;3.80;;
64667;SDS011;51077;42.716;23.344;2022-10-16T08:25:00;8.27;;;3.67;;
64667;SDS011;51077;42.716;23.344;2022-10-16T08:27:30;5.73;;;3.63;;
64667;SDS011;51077;42.716;23.344;2022-10-16T08:29:57;6.72;;;3.70;;
64667;SDS011;51077;42.716;23.344;2022-10-16T08:32:22;5.07;;;3.50;;
64667;SDS011;51077;42.716;23.344;2022-10-16T08:34:48;6.90;;;3.80;;
64667;SDS011;51077;42.716;23.344;2022-10-16T08:37:13;4.93;;;3.60;;
64667;SDS011;51077;42.716;23.344;2022-10-16T08:39:38;7.57;;;3.37;;
64667;SDS011;51077;42.716;23.344;2022-10-16T08:48:14;6.28;;;3.40;;
64667;SDS011;51077;42.716;23.344;2022-10-16T08:50:30;5.55;;;2.90;;
64667;SDS011;51077;42.716;23.344;2022-10-16T08:52:57;7.60;;;2.88;;
64667;SDS011;51077;42.716;23.344;2022-10-16T08:55:30;8.38;;;2.92;;
64667;SDS011;51077;42.716;23.344;2022-10-16T08:58:13;4.75;;;2.90;;
64667;SDS011;51077;42.716;23.344;2022-10-16T09:00:40;4.85;;;2.50;;
64667;SDS011;51077;42.716;23.344;2022-10-16T09:06:21;5.20;;;2.63;;
64667;SDS011;51077;42.716;23.344;2022-10-16T09:09:00;4.53;;;2.72;;
64667;SDS011;51077;42.716;23.344;2022-10-16T09:16:34;4.27;;;2.20;;
64667;SDS011;51077;42.716;23.344;2022-10-16T09:19:09;5.68;;;2.70;;
64667;SDS011;51077;42.716;23.344;2022-10-16T09:21:43;4.60;;;2.63;;
64667;SDS011;51077;42.716;23.344;2022-10-16T09:26:46;5.43;;;2.40;;
64667;SDS011;51077;42.716;23.344;2022-10-16T09:29:13;5.68;;;2.67;;
64667;SDS011;51077;42.716;23.344;2022-10-16T09:31:39;4.07;;;2.33;;
64667;SDS011;51077;42.716;23.344;2022-10-16T09:34:06;5.03;;;2.63;;
64667;SDS011;51077;42.716;23.344;2022-10-16T09:36:57;4.72;;;2.40;;
64667;SDS011;51077;42.716;23.344;2022-10-16T09:39:24;5.30;;;2.42;;
64667;SDS011;51077;42.716;23.344;2022-10-16T09:41:50;5.00;;;2.53;;
64667;SDS011;51077;42.716;23.344;2022-10-16T09:44:21;5.47;;;2.58;;
64667;SDS011;51077;42.716;23.344;2022-10-16T09:47:00;5.15;;;2.20;;
64667;SDS011;51077;42.716;23.344;2022-10-16T09:50:03;6.15;;;2.30;;
64667;SDS011;51077;42.716;23.344;2022-10-16T09:52:39;4.68;;;2.10;;
64667;SDS011;51077;42.716;23.344;2022-10-16T09:55:15;4.20;;;1.90;;
64667;SDS011;51077;42.716;23.344;2022-10-16T09:57:49;4.25;;;2.42;;
64667;SDS011;51077;42.716;23.344;2022-10-16T10:00:15;3.70;;;2.13;;
64667;SDS011;51077;42.716;23.344;2022-10-16T10:02:42;4.50;;;2.30;;
64667;SDS011;51077;42.716;23.344;2022-10-16T10:05:18;3.77;;;2.20;;
64667;SDS011;51077;42.716;23.344;2022-10-16T10:07:52;4.88;;;2.70;;
64667;SDS011;51077;42.716;23.344;2022-10-16T10:10:21;5.90;;;2.75;;
64667;SDS011;51077;42.716;23.344;2022-10-16T10:12:49;4.28;;;2.35;;
64667;SDS011;51077;42.716;23.344;2022-10-16T10:15:14;3.67;;;2.57;;
64667;SDS011;51077;42.716;23.344;2022-10-16T10:17:47;4.85;;;3.03;;
64667;SDS011;51077;42.716;23.344;2022-10-16T10:22:53;4.70;;;2.70;;
64667;SDS011;51077;42.716;23.344;2022-10-16T10:36:00;4.10;;;2.37;;
64667;SDS011;51077;42.716;23.344;2022-10-16T10:57:28;4.33;;;2.40;;
64667;SDS011;51077;42.716;23.344;2022-10-16T11:08:19;5.37;;;4.00;;
64667;SDS011;51077;42.716;23.344;2022-10-16T11:11:01;7.70;;;2.83;;
64667;SDS011;51077;42.716;23.344;2022-10-16T11:13:38;5.50;;;2.70;;
64667;SDS011;51077;42.716;23.344;2022-10-16T11:16:23;4.63;;;2.60;;
64667;SDS011;51077;42.716;23.344;2022-10-16T11:19:02;4.50;;;2.37;;
64667;SDS011;51077;42.716;23.344;2022-10-16T11:22:01;3.10;;;2.10;;
64667;SDS011;51077;42.716;23.344;2022-10-16T11:27:17;4.83;;;2.73;;
64667;SDS011;51077;42.716;23.344;2022-10-16T11:29:58;5.70;;;2.30;;
64667;SDS011;51077;42.716;23.344;2022-10-16T11:32:34;6.93;;;2.47;;
64667;SDS011;51077;42.716;23.344;2022-10-16T11:35:12;3.70;;;2.20;;
64667;SDS011;51077;42.716;23.344;2022-10-16T11:37:45;4.00;;;2.37;;
64667;SDS011;51077;42.716;23.344;2022-10-16T11:40:37;4.37;;;2.40;;
64667;SDS011;51077;42.716;23.344;2022-10-16T11:43:10;9.17;;;2.40;;
64667;SDS011;51077;42.716;23.344;2022-10-16T11:45:51;4.63;;;2.33;;
64667;SDS011;51077;42.716;23.344;2022-10-16T11:48:33;3.13;;;2.20;;
64667;SDS011;51077;42.716;23.344;2022-10-16T11:54:52;5.80;;;2.10;;
64667;SDS011;51077;42.716;23.344;2022-10-16T11:57:00;4.13;;;2.30;;
64667;SDS011;51077;42.716;23.344;2022-10-16T11:59:35;4.07;;;2.20;;
64667;SDS011;51077;42.716;23.344;2022-10-16T12:05:18;3.92;;;2.20;;
64667;SDS011;51077;42.716;23.344;2022-10-16T12:07:56;3.53;;;1.97;;
64667;SDS011;51077;42.716;23.344;2022-10-16T12:10:39;3.63;;;2.10;;
64667;SDS011;51077;42.716;23.344;2022-10-16T12:18:40;3.30;;;2.00;;
64667;SDS011;51077;42.716;23.344;2022-10-16T12:21:09;3.63;;;1.97;;
64667;SDS011;51077;42.716;23.344;2022-10-16T12:23:48;5.27;;;2.23;;
64667;SDS011;51077;42.716;23.344;2022-10-16T12:26:30;6.67;;;2.37;;
64667;SDS011;51077;42.716;23.344;2022-10-16T12:29:10;4.10;;;2.70;;
64667;SDS011;51077;42.716;23.344;2022-10-16T12:31:43;4.13;;;2.20;;
64667;SDS011;51077;42.716;23.344;2022-10-16T12:34:19;3.30;;;2.13;;
64667;SDS011;51077;42.716;23.344;2022-10-16T12:36:48;7.33;;;2.90;;
64667;SDS011;51077;42.716;23.344;2022-10-16T12:39:21;6.20;;;2.70;;
64667;SDS011;51077;42.716;23.344;2022-10-16T12:42:02;6.80;;;3.00;;
64667;SDS011;51077;42.716;23.344;2022-10-16T12:44:34;10.70;;;2.47;;
64667;SDS011;51077;42.716;23.344;2022-10-16T12:47:00;15.50;;;3.00;;
64667;SDS011;51077;42.716;23.344;2022-10-16T12:49:30;9.13;;;2.73;;
64667;SDS011;51077;42.716;23.344;2022-10-16T12:52:03;5.47;;;2.60;;
64667;SDS011;51077;42.716;23.344;2022-10-16T12:54:30;5.27;;;2.90;;
64667;SDS011;51077;42.716;23.344;2022-10-16T13:04:42;7.10;;;2.57;;
64667;SDS011;51077;42.716;23.344;2022-10-16T13:29:21;3.65;;;2.00;;
64667;SDS011;51077;42.716;23.344;2022-10-16T13:31:47;4.28;;;2.17;;
64667;SDS011;51077;42.716;23.344;2022-10-16T13:34:14;3.90;;;2.40;;
64667;SDS011;51077;42.716;23.344;2022-10-16T13:36:44;5.03;;;2.00;;
64667;SDS011;51077;42.716;23.344;2022-10-16T13:39:15;4.35;;;1.83;;
64667;SDS011;51077;42.716;23.344;2022-10-16T13:42:49;4.22;;;1.90;;
64667;SDS011;51077;42.716;23.344;2022-10-16T13:44:50;3.33;;;1.95;;
64667;SDS011;51077;42.716;23.344;2022-10-16T13:47:21;4.80;;;1.85;;
64667;SDS011;51077;42.716;23.344;2022-10-16T13:50:01;4.43;;;2.08;;
64667;SDS011;51077;42.716;23.344;2022-10-16T13:52:36;4.70;;;2.10;;
64667;SDS011;51077;42.716;23.344;2022-10-16T13:55:03;8.27;;;3.50;;
64667;SDS011;51077;42.716;23.344;2022-10-16T13:57:29;8.20;;;3.03;;
64667;SDS011;51077;42.716;23.344;2022-10-16T13:59:55;4.20;;;2.40;;
64667;SDS011;51077;42.716;23.344;2022-10-16T14:02:29;4.73;;;2.20;;
64667;SDS011;51077;42.716;23.344;2022-10-16T14:05:02;4.93;;;2.33;;
64667;SDS011;51077;42.716;23.344;2022-10-16T14:07:30;6.20;;;2.38;;
64667;SDS011;51077;42.716;23.344;2022-10-16T14:10:00;4.85;;;2.10;;
64667;SDS011;51077;42.716;23.344;2022-10-16T14:14:57;4.00;;;2.20;;
64667;SDS011;51077;42.716;23.344;2022-10-16T14:17:25;5.68;;;2.13;;
64667;SDS011;51077;42.716;23.344;2022-10-16T14:19:57;5.93;;;2.10;;
64667;SDS011;51077;42.716;23.344;2022-10-16T14:22:28;4.03;;;2.13;;
64667;SDS011;51077;42.716;23.344;2022-10-16T14:24:54;4.93;;;2.50;;
64667;SDS011;51077;42.716;23.344;2022-10-16T14:27:34;3.97;;;2.08;;
64667;SDS011;51077;42.716;23.344;2022-10-16T14:32:32;4.53;;;2.60;;
64667;SDS011;51077;42.716;23.344;2022-10-16T14:34:58;5.30;;;2.57;;
64667;SDS011;51077;42.716;23.344;2022-10-16T14:37:26;8.23;;;2.00;;
64667;SDS011;51077;42.716;23.344;2022-10-16T14:39:54;5.22;;;2.42;;
64667;SDS011;51077;42.716;23.344;2022-10-16T14:42:22;4.28;;;2.53;;
64667;SDS011;51077;42.716;23.344;2022-10-16T14:44:50;8.02;;;2.78;;
64667;SDS011;51077;42.716;23.344;2022-10-16T14:47:18;4.95;;;2.30;;
64667;SDS011;51077;42.716;23.344;2022-10-16T14:49:49;4.80;;;2.60;;
64667;SDS011;51077;42.716;23.344;2022-10-16T14:52:15;4.43;;;2.55;;
64667;SDS011;51077;42.716;23.344;2022-10-16T14:54:41;5.45;;;2.20;;
64667;SDS011;51077;42.716;23.344;2022-10-16T14:57:17;4.50;;;2.23;;
64667;SDS011;51077;42.716;23.344;2022-10-16T14:59:45;4.13;;;2.33;;
64667;SDS011;51077;42.716;23.344;2022-10-16T15:02:31;5.35;;;2.83;;
64667;SDS011;51077;42.716;23.344;2022-10-16T15:04:57;5.15;;;3.13;;
64667;SDS011;51077;42.716;23.344;2022-10-16T15:07:23;6.18;;;2.83;;
64667;SDS011;51077;42.716;23.344;2022-10-16T15:09:49;7.75;;;3.97;;
64667;SDS011;51077;42.716;23.344;2022-10-16T15:12:15;5.00;;;3.57;;
64667;SDS011;51077;42.716;23.344;2022-10-16T15:14:41;6.38;;;3.42;;
64667;SDS011;51077;42.716;23.344;2022-10-16T15:17:08;5.33;;;3.07;;
64667;SDS011;51077;42.716;23.344;2022-10-16T15:19:35;5.72;;;2.95;;
64667;SDS011;51077;42.716;23.344;2022-10-16T15:22:00;5.37;;;2.70;;
64667;SDS011;51077;42.716;23.344;2022-10-16T15:24:26;4.30;;;3.00;;
64667;SDS011;51077;42.716;23.344;2022-10-16T15:26:51;5.73;;;3.20;;
64667;SDS011;51077;42.716;23.344;2022-10-16T15:29:17;5.77;;;3.17;;
64667;SDS011;51077;42.716;23.344;2022-10-16T15:31:42;6.10;;;3.23;;
64667;SDS011;51077;42.716;23.344;2022-10-16T15:34:10;4.83;;;2.83;;
64667;SDS011;51077;42.716;23.344;2022-10-16T15:36:38;6.85;;;3.05;;
64667;SDS011;51077;42.716;23.344;2022-10-16T15:39:05;7.05;;;2.92;;
64667;SDS011;51077;42.716;23.344;2022-10-16T15:41:37;5.28;;;3.25;;
64667;SDS011;51077;42.716;23.344;2022-10-16T15:44:03;5.33;;;3.30;;
64667;SDS011;51077;42.716;23.344;2022-10-16T15:46:28;4.67;;;2.97;;
64667;SDS011;51077;42.716;23.344;2022-10-16T15:48:56;6.20;;;2.70;;
64667;SDS011;51077;42.716;23.344;2022-10-16T15:51:23;7.70;;;3.47;;
64667;SDS011;51077;42.716;23.344;2022-10-16T15:53:50;6.32;;;3.15;;
64667;SDS011;51077;42.716;23.344;2022-10-16T15:56:16;5.23;;;3.10;;
64667;SDS011;51077;42.716;23.344;2022-10-16T15:58:42;5.07;;;3.47;;
64667;SDS011;51077;42.716;23.344;2022-10-16T16:01:08;7.60;;;3.92;;
64667;SDS011;51077;42.716;23.344;2022-10-16T16:03:36;6.03;;;3.40;;
64667;SDS011;51077;42.716;23.344;2022-10-16T16:06:06;8.00;;;5.03;;
64667;SDS011;51077;42.716;23.344;2022-10-16T16:08:33;8.85;;;4.47;;
64667;SDS011;51077;42.716;23.344;2022-10-16T16:11:12;6.30;;;4.35;;
64667;SDS011;51077;42.716;23.344;2022-10-16T16:13:38;8.95;;;4.07;;
64667;SDS011;51077;42.716;23.344;2022-10-16T16:16:08;6.40;;;4.20;;
64667;SDS011;51077;42.716;23.344;2022-10-16T16:18:36;10.30;;;4.65;;
64667;SDS011;51077;42.716;23.344;2022-10-16T16:21:02;7.17;;;5.27;;
64667;SDS011;51077;42.716;23.344;2022-10-16T16:23:28;9.93;;;5.28;;
64667;SDS011;51077;42.716;23.344;2022-10-16T16:26:06;8.50;;;5.30;;
64667;SDS011;51077;42.716;23.344;2022-10-16T16:28:32;8.05;;;5.30;;
64667;SDS011;51077;42.716;23.344;2022-10-16T16:30:58;7.60;;;5.00;;
64667;SDS011;51077;42.716;23.344;2022-10-16T16:33:23;9.37;;;5.47;;
64667;SDS011;51077;42.716;23.344;2022-10-16T16:35:49;12.87;;;6.10;;
64667;SDS011;51077;42.716;23.344;2022-10-16T16:38:14;8.83;;;5.67;;
64667;SDS011;51077;42.716;23.344;2022-10-16T16:40:39;21.60;;;9.30;;
64667;SDS011;51077;42.716;23.344;2022-10-16T16:43:05;10.73;;;6.20;;